createdAt,value
2019-05-17T00:00:50.676Z,10.00
2019-05-17T00:01:54.622Z,11.55
2019-05-17T00:02:58.364Z,10.03
2019-05-17T00:04:02.299Z,10.85
2019-05-17T00:05:07.296Z,10.10
2019-05-17T00:06:11.330Z,9.60
2019-05-17T00:07:16.693Z,9.85
2019-05-17T00:08:33.648Z,11.70
2019-05-17T00:09:26.802Z,11.03
2019-05-17T00:10:30.864Z,9.15
2019-05-17T00:11:36.623Z,10.35
2019-05-17T00:12:40.264Z,10.65
2019-05-17T00:13:46.488Z,11.93
2019-05-17T00:14:49.658Z,13.35
2019-05-17T00:15:53.476Z,10.03
2019-05-17T00:16:57.470Z,10.85
2019-05-17T00:18:01.159Z,11.20
2019-05-17T00:19:07.301Z,12.15
2019-05-17T00:20:11.433Z,11.10
2019-05-17T00:21:16.974Z,16.55
2019-05-17T00:22:20.892Z,14.83
2019-05-17T00:23:26.755Z,12.93
2019-05-17T00:24:30.216Z,13.83
2019-05-17T00:25:36.609Z,10.98
2019-05-17T00:26:39.887Z,10.30
2019-05-17T00:27:43.823Z,11.45
2019-05-17T00:28:47.571Z,11.55
2019-05-17T00:29:51.547Z,11.30
2019-05-17T00:30:57.120Z,13.53
2019-05-17T00:32:00.910Z,12.78
2019-05-17T00:33:04.651Z,12.37
2019-05-17T00:34:08.589Z,10.18
2019-05-17T00:35:12.747Z,10.95
2019-05-17T00:36:17.903Z,11.70
2019-05-17T00:37:21.727Z,10.60
2019-05-17T00:38:27.402Z,12.35
2019-05-17T00:39:31.387Z,11.05
2019-05-17T00:40:36.541Z,12.25
2019-05-17T00:41:40.688Z,10.72
2019-05-17T00:42:46.703Z,12.00
2019-05-17T00:43:50.038Z,12.55
2019-05-17T00:44:53.971Z,10.98
2019-05-17T00:45:57.723Z,11.22
2019-05-17T00:47:01.672Z,11.28
2019-05-17T00:48:06.455Z,12.10
2019-05-17T00:49:10.691Z,15.78
2019-05-17T00:50:16.964Z,16.20
2019-05-17T00:51:20.769Z,17.07
2019-05-17T00:52:24.547Z,13.35
2019-05-17T00:53:28.495Z,14.65
2019-05-17T00:54:32.275Z,13.38
2019-05-17T00:55:36.440Z,16.85
2019-05-17T00:56:40.496Z,17.37
2019-05-17T00:57:44.429Z,14.50
2019-05-17T00:58:48.175Z,14.35
2019-05-17T00:59:52.146Z,17.00
2019-05-17T01:00:57.097Z,17.75
2019-05-17T01:02:01.139Z,16.40
2019-05-17T01:03:07.136Z,18.27
2019-05-17T01:04:10.931Z,15.05
2019-05-17T01:05:17.034Z,16.73
2019-05-17T01:06:20.654Z,17.77
2019-05-17T01:07:26.750Z,17.62
2019-05-17T01:08:30.138Z,16.87
2019-05-17T01:09:33.887Z,17.35
2019-05-17T01:10:37.868Z,18.30
2019-05-17T01:11:41.683Z,17.10
2019-05-17T01:12:48.031Z,16.30
2019-05-17T01:13:51.031Z,18.87
2019-05-17T01:14:55.004Z,16.35
2019-05-17T01:15:58.763Z,19.25
2019-05-17T01:17:02.705Z,19.42
2019-05-17T01:18:07.153Z,17.02
2019-05-17T01:19:11.491Z,15.25
2019-05-17T01:20:17.400Z,18.35
2019-05-17T01:21:21.463Z,19.65
2019-05-17T01:22:26.259Z,15.53
2019-05-17T01:23:30.271Z,16.52
2019-05-17T01:24:34.051Z,16.62
2019-05-17T01:25:38.259Z,15.23
2019-05-17T01:26:42.019Z,16.45
2019-05-17T01:27:47.487Z,15.75
2019-05-17T01:28:51.443Z,16.20
2019-05-17T01:29:57.246Z,15.60
2019-05-17T01:31:00.783Z,15.10
2019-05-17T01:32:06.741Z,16.95
2019-05-17T01:33:10.152Z,14.58
2019-05-17T01:34:16.464Z,16.95
2019-05-17T01:35:19.514Z,15.45
2019-05-17T01:36:23.451Z,16.40
2019-05-17T01:37:27.780Z,16.32
2019-05-17T01:38:31.850Z,14.47
2019-05-17T01:39:37.464Z,15.32
2019-05-17T01:40:41.215Z,16.10
2019-05-17T01:41:46.784Z,17.55
2019-05-17T01:42:50.595Z,18.82
2019-05-17T01:43:56.509Z,15.03
2019-05-17T01:44:59.935Z,16.12
2019-05-17T01:46:03.687Z,19.10
2019-05-17T01:47:07.661Z,17.40
2019-05-17T01:48:11.442Z,16.30
2019-05-17T01:49:16.467Z,17.65
2019-05-17T01:50:20.444Z,15.93
2019-05-17T01:51:26.351Z,16.75
2019-05-17T01:52:29.826Z,18.92
2019-05-17T01:53:33.762Z,19.40
2019-05-17T01:54:37.510Z,18.40
2019-05-17T01:55:41.448Z,18.02
2019-05-17T01:56:46.207Z,17.15
2019-05-17T01:57:50.277Z,16.25
2019-05-17T01:58:54.020Z,20.75
2019-05-17T01:59:57.955Z,16.25
2019-05-17T02:01:01.737Z,16.52
2019-05-17T02:02:07.194Z,18.35
2019-05-17T02:03:10.990Z,17.42
2019-05-17T02:04:17.224Z,19.27
2019-05-17T02:05:20.475Z,18.42
2019-05-17T02:06:24.416Z,22.20
2019-05-17T02:07:28.198Z,18.25
2019-05-17T02:08:32.135Z,27.32
2019-05-17T02:09:41.172Z,16.17
2019-05-17T02:10:41.549Z,16.67
2019-05-17T02:11:46.692Z,17.57
2019-05-17T02:12:50.682Z,18.45
2019-05-17T02:13:56.179Z,23.22
2019-05-17T02:15:00.192Z,19.30
2019-05-17T02:16:04.034Z,20.32
2019-05-17T02:17:07.970Z,18.90
2019-05-17T02:18:11.727Z,17.02
2019-05-17T02:19:17.439Z,20.68
2019-05-17T02:20:21.463Z,17.98
2019-05-17T02:21:27.384Z,21.57
2019-05-17T02:22:30.868Z,21.55
2019-05-17T02:23:36.972Z,18.42
2019-05-17T02:24:40.204Z,16.82
2019-05-17T02:25:44.189Z,18.90
2019-05-17T02:26:47.935Z,16.02
2019-05-17T02:27:52.380Z,17.80
2019-05-17T02:28:56.087Z,14.23
2019-05-17T02:30:02.630Z,14.50
2019-05-17T02:31:05.669Z,13.95
2019-05-17T02:32:12.616Z,12.37
2019-05-17T02:33:15.169Z,12.53
2019-05-17T02:34:19.095Z,12.93
2019-05-17T02:35:23.248Z,10.85
2019-05-17T02:36:27.279Z,14.80
2019-05-17T02:37:33.387Z,12.70
2019-05-17T02:38:36.660Z,15.38
2019-05-17T02:39:53.952Z,12.28
2019-05-17T02:40:46.003Z,18.55
2019-05-17T02:41:53.051Z,14.50
2019-05-17T02:42:55.449Z,17.30
2019-05-17T02:44:02.163Z,16.77
2019-05-17T02:45:06.015Z,15.40
2019-05-17T02:46:09.781Z,18.57
2019-05-17T02:47:13.751Z,15.38
2019-05-17T02:48:17.495Z,15.63
2019-05-17T02:49:23.593Z,15.05
2019-05-17T02:50:26.871Z,16.35
2019-05-17T02:51:32.452Z,14.63
2019-05-17T02:52:36.466Z,18.20
2019-05-17T02:53:42.995Z,16.65
2019-05-17T02:54:45.839Z,16.55
2019-05-17T02:55:49.784Z,16.35
2019-05-17T02:56:53.935Z,19.70
2019-05-17T02:57:58.117Z,18.50
2019-05-17T02:59:03.696Z,19.05
2019-05-17T03:00:08.419Z,14.98
2019-05-17T03:01:12.832Z,19.12
2019-05-17T03:02:16.850Z,18.73
2019-05-17T03:03:23.460Z,20.50
2019-05-17T03:04:26.187Z,17.27
2019-05-17T03:05:33.416Z,16.87
2019-05-17T03:06:35.595Z,16.85
2019-05-17T03:07:39.390Z,17.25
2019-05-17T03:08:43.324Z,17.92
2019-05-17T03:09:47.085Z,22.67
2019-05-17T03:10:53.422Z,19.42
2019-05-17T03:11:57.247Z,18.90
2019-05-17T03:13:03.961Z,21.05
2019-05-17T03:14:06.805Z,17.15
2019-05-17T03:15:13.014Z,17.42
2019-05-17T03:16:16.292Z,20.55
2019-05-17T03:17:22.964Z,19.62
2019-05-17T03:18:25.704Z,17.95
2019-05-17T03:19:32.538Z,18.55
2019-05-17T03:20:35.045Z,18.80
2019-05-17T03:21:38.978Z,19.15
2019-05-17T03:22:44.000Z,17.42
2019-05-17T03:23:48.405Z,16.62
2019-05-17T03:24:53.270Z,18.77
2019-05-17T03:25:57.463Z,17.20
2019-05-17T03:27:03.042Z,15.38
2019-05-17T03:28:06.934Z,21.15
2019-05-17T03:29:13.351Z,18.50
2019-05-17T03:30:18.272Z,18.50
2019-05-17T03:31:26.700Z,17.60
2019-05-17T03:32:28.718Z,21.15
2019-05-17T03:33:35.794Z,16.35
2019-05-17T03:34:44.501Z,18.98
2019-05-17T03:35:46.423Z,19.95
2019-05-17T03:36:55.858Z,20.35
2019-05-17T03:37:56.130Z,16.00
2019-05-17T03:39:03.053Z,18.60
2019-05-17T03:40:23.573Z,19.07
2019-05-17T03:41:22.869Z,19.70
2019-05-17T03:42:18.172Z,20.95
2019-05-17T03:43:22.761Z,19.10
2019-05-17T03:44:26.594Z,18.07
2019-05-17T03:45:33.616Z,17.95
2019-05-17T03:46:35.946Z,19.15
2019-05-17T03:47:39.945Z,20.62
2019-05-17T03:48:43.800Z,20.48
2019-05-17T03:49:47.747Z,21.65
2019-05-17T03:50:53.165Z,22.55
2019-05-17T03:51:57.299Z,21.45
2019-05-17T03:53:02.352Z,22.17
2019-05-17T03:54:06.596Z,21.15
2019-05-17T03:55:13.163Z,23.80
2019-05-17T03:56:16.436Z,25.35
2019-05-17T03:57:23.640Z,26.50
2019-05-17T03:58:25.769Z,21.30
2019-05-17T03:59:29.520Z,24.10
2019-05-17T04:00:35.379Z,22.00
2019-05-17T04:01:38.984Z,22.67
2019-05-17T04:02:44.345Z,19.27
2019-05-17T04:03:48.331Z,21.60
2019-05-17T04:04:53.135Z,22.55
2019-05-17T04:05:57.055Z,19.67
2019-05-17T04:07:03.447Z,21.48
2019-05-17T04:08:06.416Z,20.32
2019-05-17T04:09:13.438Z,23.55
2019-05-17T04:10:17.116Z,23.38
2019-05-17T04:11:31.116Z,22.05
2019-05-17T04:12:26.482Z,25.90
2019-05-17T04:13:33.580Z,23.80
2019-05-17T04:14:35.829Z,24.12
2019-05-17T04:15:43.137Z,19.73
2019-05-17T04:16:45.284Z,17.23
2019-05-17T04:17:49.229Z,20.95
2019-05-17T04:18:53.832Z,27.98
2019-05-17T04:19:57.733Z,21.27
2019-05-17T04:21:03.355Z,21.45
2019-05-17T04:22:07.083Z,19.27
2019-05-17T04:23:12.727Z,18.73
2019-05-17T04:24:16.473Z,19.65
2019-05-17T04:25:23.220Z,20.65
2019-05-17T04:26:25.833Z,22.10
2019-05-17T04:27:29.579Z,24.72
2019-05-17T04:28:33.827Z,21.30
2019-05-17T04:29:37.736Z,22.87
2019-05-17T04:30:43.222Z,23.47
2019-05-17T04:31:47.227Z,21.27
2019-05-17T04:32:52.716Z,22.37
2019-05-17T04:33:56.618Z,22.82
2019-05-17T04:35:03.661Z,21.65
2019-05-17T04:36:06.078Z,21.97
2019-05-17T04:37:12.906Z,19.23
2019-05-17T04:38:15.415Z,21.62
2019-05-17T04:39:22.409Z,22.60
2019-05-17T04:40:24.759Z,20.23
2019-05-17T04:41:41.313Z,27.25
2019-05-17T04:42:34.132Z,22.80
2019-05-17T04:43:38.063Z,21.95
2019-05-17T04:44:43.105Z,26.12
2019-05-17T04:45:47.265Z,22.52
2019-05-17T04:46:53.599Z,23.40
2019-05-17T04:47:56.649Z,20.60
2019-05-17T04:49:02.897Z,24.55
2019-05-17T04:50:06.310Z,23.47
2019-05-17T04:51:13.178Z,22.07
2019-05-17T04:52:15.750Z,23.07
2019-05-17T04:53:19.501Z,23.67
2019-05-17T04:54:23.439Z,31.12
2019-05-17T04:55:27.188Z,22.50
2019-05-17T04:56:33.363Z,23.25
2019-05-17T04:57:36.567Z,22.40
2019-05-17T04:58:42.886Z,18.75
2019-05-17T04:59:45.969Z,21.73
2019-05-17T05:00:52.912Z,23.67
2019-05-17T05:01:55.368Z,22.55
2019-05-17T05:02:59.347Z,24.50
2019-05-17T05:04:03.742Z,28.77
2019-05-17T05:05:08.282Z,24.95
2019-05-17T05:06:13.399Z,23.80
2019-05-17T05:07:17.608Z,21.02
2019-05-17T05:08:22.443Z,21.85
2019-05-17T05:09:26.534Z,25.62
2019-05-17T05:10:32.957Z,21.42
2019-05-17T05:11:51.579Z,24.77
2019-05-17T05:12:43.526Z,25.10
2019-05-17T05:13:46.876Z,23.27
2019-05-17T05:14:52.297Z,21.52
2019-05-17T05:15:56.387Z,22.22
2019-05-17T05:17:02.484Z,24.20
2019-05-17T05:18:05.799Z,24.37
2019-05-17T05:19:09.545Z,29.55
2019-05-17T05:20:13.773Z,26.85
2019-05-17T05:21:17.580Z,26.37
2019-05-17T05:22:22.495Z,24.95
2019-05-17T05:23:26.308Z,25.68
2019-05-17T05:24:31.554Z,28.07
2019-05-17T05:25:35.307Z,26.00
2019-05-17T05:26:39.249Z,27.52
2019-05-17T05:27:43.092Z,26.27
2019-05-17T05:28:49.577Z,26.87
2019-05-17T05:29:52.392Z,28.70
2019-05-17T05:30:56.336Z,29.82
2019-05-17T05:32:02.453Z,28.95
2019-05-17T05:33:05.728Z,28.30
2019-05-17T05:34:12.156Z,28.35
2019-05-17T05:35:15.133Z,32.90
2019-05-17T05:36:18.884Z,31.40
2019-05-17T05:37:23.311Z,29.82
2019-05-17T05:38:27.111Z,28.90
2019-05-17T05:39:31.973Z,29.20
2019-05-17T05:40:35.821Z,33.02
2019-05-17T05:41:39.767Z,29.12
2019-05-17T05:42:43.548Z,31.55
2019-05-17T05:43:47.567Z,27.75
2019-05-17T05:44:52.195Z,26.87
2019-05-17T05:45:56.966Z,28.67
2019-05-17T05:47:02.206Z,30.72
2019-05-17T05:48:06.207Z,37.08
2019-05-17T05:49:12.209Z,29.87
2019-05-17T05:50:17.660Z,27.25
2019-05-17T05:51:21.643Z,27.42
2019-05-17T05:52:25.691Z,28.45
2019-05-17T05:53:29.503Z,29.80
2019-05-17T05:54:33.485Z,27.75
2019-05-17T05:55:37.242Z,32.03
2019-05-17T05:56:42.217Z,27.55
2019-05-17T05:57:46.149Z,28.57
2019-05-17T05:58:52.334Z,30.68
2019-05-17T05:59:55.519Z,29.05
2019-05-17T06:01:02.056Z,27.55
2019-05-17T06:02:04.959Z,31.00
2019-05-17T06:03:08.908Z,26.15
2019-05-17T06:04:12.666Z,27.55
2019-05-17T06:05:17.448Z,31.80
2019-05-17T06:06:21.616Z,30.20
2019-05-17T06:07:25.598Z,36.65
2019-05-17T06:08:29.356Z,34.75
2019-05-17T06:09:33.300Z,33.38
2019-05-17T06:10:39.451Z,30.82
2019-05-17T06:11:42.631Z,32.35
2019-05-17T06:12:46.425Z,29.95
2019-05-17T06:13:52.355Z,32.60
2019-05-17T06:14:56.243Z,34.35
2019-05-17T06:16:02.413Z,31.25
2019-05-17T06:17:05.575Z,33.18
2019-05-17T06:18:11.965Z,34.70
2019-05-17T06:19:14.959Z,35.50
2019-05-17T06:20:19.047Z,34.18
2019-05-17T06:21:22.826Z,32.48
2019-05-17T06:22:26.748Z,33.67
2019-05-17T06:23:31.551Z,30.50
2019-05-17T06:24:35.721Z,34.63
2019-05-17T06:25:39.479Z,35.10
2019-05-17T06:26:43.414Z,32.05
2019-05-17T06:27:47.173Z,31.85
2019-05-17T06:28:51.846Z,36.75
2019-05-17T06:29:55.720Z,34.18
2019-05-17T06:30:59.690Z,28.52
2019-05-17T06:32:03.446Z,29.23
2019-05-17T06:33:07.398Z,32.00
2019-05-17T06:34:11.668Z,34.40
2019-05-17T06:35:15.849Z,33.88
2019-05-17T06:36:21.626Z,31.95
2019-05-17T06:37:25.190Z,32.67
2019-05-17T06:38:28.963Z,30.92
2019-05-17T06:39:33.052Z,27.17
2019-05-17T06:40:43.282Z,29.87
2019-05-17T06:41:47.228Z,31.00
2019-05-17T06:42:52.501Z,28.25
2019-05-17T06:43:56.602Z,33.05
2019-05-17T06:45:02.210Z,29.70
2019-05-17T06:46:06.051Z,30.68
2019-05-17T06:47:11.947Z,26.00
2019-05-17T06:48:15.390Z,30.05
2019-05-17T06:49:19.153Z,30.40
2019-05-17T06:50:23.698Z,29.35
2019-05-17T06:51:27.579Z,32.13
2019-05-17T06:52:32.650Z,27.67
2019-05-17T06:53:36.496Z,28.00
2019-05-17T06:54:41.730Z,29.18
2019-05-17T06:55:45.750Z,24.80
2019-05-17T06:56:49.713Z,27.77
2019-05-17T06:57:53.442Z,33.95
2019-05-17T06:58:57.400Z,26.45
2019-05-17T07:00:03.176Z,27.15
2019-05-17T07:01:09.419Z,27.60
2019-05-17T07:02:12.531Z,30.40
2019-05-17T07:03:16.481Z,28.20
2019-05-17T07:04:20.230Z,28.12
2019-05-17T07:05:25.488Z,34.13
2019-05-17T07:06:30.703Z,34.55
2019-05-17T07:07:34.651Z,28.75
2019-05-17T07:08:40.191Z,32.88
2019-05-17T07:09:44.000Z,31.25
2019-05-17T07:10:50.107Z,31.40
2019-05-17T07:11:53.375Z,30.35
2019-05-17T07:12:59.590Z,29.15
2019-05-17T07:14:02.872Z,32.65
2019-05-17T07:15:07.731Z,29.92
2019-05-17T07:16:11.726Z,27.80
2019-05-17T07:17:15.480Z,27.75
2019-05-17T07:18:19.560Z,30.30
2019-05-17T07:19:23.379Z,30.10
2019-05-17T07:20:27.327Z,32.65
2019-05-17T07:21:31.118Z,29.05
2019-05-17T07:22:35.144Z,31.05
2019-05-17T07:23:39.665Z,28.05
2019-05-17T07:24:43.732Z,30.92
2019-05-17T07:25:47.483Z,32.98
2019-05-17T07:26:51.455Z,31.20
2019-05-17T07:27:55.256Z,33.58
2019-05-17T07:28:59.338Z,33.98
2019-05-17T07:30:04.289Z,31.12
2019-05-17T07:31:10.106Z,31.05
2019-05-17T07:32:13.629Z,29.10
2019-05-17T07:33:19.775Z,44.08
2019-05-17T07:34:23.004Z,27.85
2019-05-17T07:35:26.934Z,31.85
2019-05-17T07:36:30.763Z,31.65
2019-05-17T07:37:34.691Z,30.15
2019-05-17T07:38:39.649Z,29.70
2019-05-17T07:39:43.695Z,32.23
2019-05-17T07:40:49.957Z,32.17
2019-05-17T07:41:53.146Z,27.20
2019-05-17T07:43:10.216Z,29.60
2019-05-17T07:44:02.496Z,30.75
2019-05-17T07:45:10.068Z,30.50
2019-05-17T07:46:14.267Z,33.65
2019-05-17T07:47:20.141Z,28.62
2019-05-17T07:48:23.657Z,31.05
2019-05-17T07:49:29.331Z,29.92
2019-05-17T07:50:33.010Z,28.60
2019-05-17T07:51:36.759Z,32.33
2019-05-17T07:52:40.756Z,30.20
2019-05-17T07:53:44.513Z,29.90
2019-05-17T07:54:50.809Z,28.38
2019-05-17T07:55:53.850Z,35.83
2019-05-17T07:57:00.243Z,30.12
2019-05-17T07:58:03.262Z,32.15
2019-05-17T07:59:09.419Z,29.02
2019-05-17T08:00:12.742Z,27.00
2019-05-17T08:01:16.755Z,27.27
2019-05-17T08:02:20.513Z,32.67
2019-05-17T08:03:25.076Z,37.03
2019-05-17T08:04:29.903Z,29.57
2019-05-17T08:05:34.016Z,30.35
2019-05-17T08:06:40.016Z,25.50
2019-05-17T08:07:43.358Z,26.70
2019-05-17T08:08:49.940Z,29.87
2019-05-17T08:09:52.749Z,30.15
2019-05-17T08:10:56.496Z,28.90
2019-05-17T08:12:00.505Z,32.08
2019-05-17T08:13:04.249Z,30.10
2019-05-17T08:14:10.389Z,24.10
2019-05-17T08:15:13.649Z,26.70
2019-05-17T08:16:19.528Z,27.37
2019-05-17T08:17:23.025Z,27.80
2019-05-17T08:18:29.448Z,22.32
2019-05-17T08:19:32.407Z,27.60
2019-05-17T08:20:36.346Z,25.02
2019-05-17T08:21:40.098Z,26.33
2019-05-17T08:22:44.084Z,24.95
2019-05-17T08:23:50.410Z,23.12
2019-05-17T08:24:53.508Z,24.18
2019-05-17T08:26:00.061Z,21.70
2019-05-17T08:27:02.839Z,26.37
2019-05-17T08:28:06.635Z,25.48
2019-05-17T08:29:10.650Z,28.45
2019-05-17T08:30:14.739Z,23.95
2019-05-17T08:31:20.213Z,23.47
2019-05-17T08:32:24.060Z,24.77
2019-05-17T08:33:29.819Z,26.65
2019-05-17T08:34:33.407Z,23.35
2019-05-17T08:35:37.355Z,24.72
2019-05-17T08:36:41.156Z,23.50
2019-05-17T08:37:45.095Z,24.35
2019-05-17T08:38:50.186Z,23.18
2019-05-17T08:39:54.212Z,26.00
2019-05-17T08:41:00.383Z,24.02
2019-05-17T08:42:03.621Z,22.13
2019-05-17T08:43:09.737Z,25.90
2019-05-17T08:44:12.960Z,20.75
2019-05-17T08:45:16.710Z,24.70
2019-05-17T08:46:20.665Z,21.00
2019-05-17T08:47:24.458Z,27.93
2019-05-17T08:48:29.468Z,20.45
2019-05-17T08:49:33.258Z,24.25
2019-05-17T08:50:37.206Z,21.62
2019-05-17T08:51:40.951Z,29.70
2019-05-17T08:52:44.938Z,24.95
2019-05-17T08:53:49.278Z,22.82
2019-05-17T08:54:53.336Z,25.68
2019-05-17T08:55:57.096Z,21.80
2019-05-17T08:57:01.039Z,17.92
2019-05-17T08:58:04.899Z,23.80
2019-05-17T08:59:09.585Z,22.07
2019-05-17T09:00:13.580Z,20.20
2019-05-17T09:01:19.602Z,23.18
2019-05-17T09:02:22.933Z,19.62
2019-05-17T09:03:26.920Z,19.07
2019-05-17T09:04:30.679Z,21.62
2019-05-17T09:05:34.695Z,20.17
2019-05-17T09:06:39.759Z,19.35
2019-05-17T09:07:43.807Z,20.27
2019-05-17T09:08:49.814Z,22.77
2019-05-17T09:09:53.191Z,16.65
2019-05-17T09:10:56.955Z,21.12
2019-05-17T09:12:00.896Z,21.35
2019-05-17T09:13:04.688Z,20.90
2019-05-17T09:14:10.492Z,19.85
2019-05-17T09:15:14.142Z,21.45
2019-05-17T09:16:19.577Z,20.88
2019-05-17T09:17:23.561Z,18.67
2019-05-17T09:18:29.968Z,23.30
2019-05-17T09:19:32.945Z,18.02
2019-05-17T09:20:36.895Z,18.50
2019-05-17T09:21:40.683Z,22.75
2019-05-17T09:22:44.627Z,16.48
2019-05-17T09:23:50.392Z,17.98
2019-05-17T09:24:53.980Z,19.10
2019-05-17T09:25:59.532Z,23.02
2019-05-17T09:27:03.368Z,20.25
2019-05-17T09:28:07.123Z,21.12
2019-05-17T09:29:11.062Z,18.92
2019-05-17T09:30:15.156Z,19.82
2019-05-17T09:31:20.393Z,21.62
2019-05-17T09:32:24.389Z,21.40
2019-05-17T09:33:30.068Z,23.70
2019-05-17T09:34:33.734Z,18.40
2019-05-17T09:35:37.671Z,21.65
2019-05-17T09:36:41.471Z,17.52
2019-05-17T09:37:45.420Z,18.65
2019-05-17T09:38:49.515Z,21.42
2019-05-17T09:39:53.555Z,18.35
2019-05-17T09:40:59.721Z,19.10
2019-05-17T09:42:02.911Z,20.25
2019-05-17T09:43:06.659Z,16.80
2019-05-17T09:44:15.946Z,18.35
2019-05-17T09:45:16.319Z,18.12
2019-05-17T09:46:20.272Z,18.40
2019-05-17T09:47:24.024Z,16.17
2019-05-17T09:48:30.373Z,13.78
2019-05-17T09:49:33.486Z,16.57
2019-05-17T09:50:39.626Z,11.78
2019-05-17T09:51:42.903Z,12.78
2019-05-17T09:52:49.259Z,13.60
2019-05-17T09:53:52.244Z,14.63
2019-05-17T09:54:56.236Z,16.95
2019-05-17T09:56:00.711Z,15.83
2019-05-17T09:57:04.704Z,22.85
2019-05-17T09:58:09.872Z,17.20
2019-05-17T09:59:14.070Z,16.42
2019-05-17T10:00:20.607Z,18.30
2019-05-17T10:01:23.903Z,16.85
2019-05-17T10:02:27.700Z,17.70
2019-05-17T10:03:31.646Z,17.35
2019-05-17T10:04:35.401Z,19.67
2019-05-17T10:05:40.530Z,18.00
2019-05-17T10:06:44.635Z,17.40
2019-05-17T10:07:50.767Z,24.18
2019-05-17T10:08:53.983Z,16.73
2019-05-17T10:09:59.751Z,14.23
2019-05-17T10:11:08.581Z,17.67
2019-05-17T10:12:09.530Z,18.42
2019-05-17T10:13:13.507Z,18.32
2019-05-17T10:14:25.785Z,16.48
2019-05-17T10:15:22.894Z,15.60
2019-05-17T10:16:26.895Z,16.25
2019-05-17T10:17:30.730Z,18.60
2019-05-17T10:18:34.682Z,17.60
2019-05-17T10:19:40.220Z,18.07
2019-05-17T10:20:44.022Z,20.92
2019-05-17T10:21:47.879Z,18.27
2019-05-17T10:22:51.831Z,19.75
2019-05-17T10:23:55.588Z,16.80
2019-05-17T10:25:00.309Z,20.30
2019-05-17T10:26:04.402Z,21.23
2019-05-17T10:27:10.915Z,19.55
2019-05-17T10:28:13.859Z,18.75
2019-05-17T10:29:17.807Z,17.95
2019-05-17T10:30:21.808Z,19.10
2019-05-17T10:31:25.760Z,21.20
2019-05-17T10:32:30.911Z,19.95
2019-05-17T10:33:35.115Z,19.00
2019-05-17T10:34:40.123Z,29.32
2019-05-17T10:35:44.197Z,21.00
2019-05-17T10:36:50.535Z,19.90
2019-05-17T10:37:53.587Z,18.45
2019-05-17T10:38:59.180Z,20.05
2019-05-17T10:40:02.933Z,18.70
2019-05-17T10:41:06.752Z,19.05
2019-05-17T10:42:10.771Z,19.77
2019-05-17T10:43:14.555Z,21.40
2019-05-17T10:44:19.878Z,25.02
2019-05-17T10:45:23.768Z,21.20
2019-05-17T10:46:29.942Z,20.25
2019-05-17T10:47:33.276Z,19.48
2019-05-17T10:48:37.212Z,18.85
2019-05-17T10:49:41.018Z,18.73
2019-05-17T10:50:45.031Z,21.55
2019-05-17T10:51:49.426Z,22.73
2019-05-17T10:52:53.435Z,21.10
2019-05-17T10:53:57.183Z,21.00
2019-05-17T10:55:01.168Z,20.05
2019-05-17T10:56:05.058Z,19.07
2019-05-17T10:57:10.406Z,20.05
2019-05-17T10:58:14.498Z,18.75
2019-05-17T10:59:20.321Z,20.43
2019-05-17T11:00:24.446Z,20.30
2019-05-17T11:01:30.491Z,20.60
2019-05-17T11:02:33.862Z,20.25
2019-05-17T11:03:39.775Z,22.00
2019-05-17T11:04:43.256Z,22.85
2019-05-17T11:05:47.205Z,18.12
2019-05-17T11:06:50.971Z,19.52
2019-05-17T11:07:54.906Z,17.92
2019-05-17T11:08:59.475Z,21.20
2019-05-17T11:10:04.095Z,23.70
2019-05-17T11:11:10.052Z,18.73
2019-05-17T11:12:13.442Z,19.67
2019-05-17T11:13:17.196Z,21.77
2019-05-17T11:14:21.131Z,22.60
2019-05-17T11:15:24.923Z,21.70
2019-05-17T11:16:28.918Z,20.97
2019-05-17T11:17:32.653Z,20.92
2019-05-17T11:18:36.602Z,19.77
2019-05-17T11:19:40.358Z,20.05
2019-05-17T11:20:44.344Z,21.52
2019-05-17T11:21:48.107Z,20.80
2019-05-17T11:22:52.054Z,17.52
2019-05-17T11:23:55.886Z,17.92
2019-05-17T11:24:59.825Z,18.25
2019-05-17T11:26:03.634Z,22.00
2019-05-17T11:27:07.572Z,16.25
2019-05-17T11:28:11.380Z,16.95
2019-05-17T11:29:15.279Z,29.40
2019-05-17T11:30:19.404Z,16.12
2019-05-17T11:31:23.384Z,18.85
2019-05-17T11:32:27.151Z,16.87
2019-05-17T11:33:31.099Z,17.17
2019-05-17T11:34:34.862Z,17.82
2019-05-17T11:35:38.822Z,17.37
2019-05-17T11:36:42.620Z,19.23
2019-05-17T11:37:46.593Z,17.48
2019-05-17T11:38:50.340Z,18.70
2019-05-17T11:39:54.291Z,18.12
2019-05-17T11:40:58.168Z,17.05
2019-05-17T11:42:02.164Z,14.85
2019-05-17T11:43:05.928Z,16.52
2019-05-17T11:44:09.947Z,17.15
2019-05-17T11:45:26.628Z,14.60
2019-05-17T11:46:35.037Z,16.02
2019-05-17T11:47:25.500Z,14.60
2019-05-17T11:48:29.474Z,17.73
2019-05-17T11:49:33.240Z,17.77
2019-05-17T11:50:37.246Z,17.77
2019-05-17T11:51:41.005Z,20.23
2019-05-17T11:52:44.942Z,22.62
2019-05-17T11:53:48.699Z,21.55
2019-05-17T11:54:52.645Z,17.57
2019-05-17T11:55:56.704Z,19.65
2019-05-17T11:57:00.652Z,19.90
2019-05-17T11:58:04.674Z,19.00
2019-05-17T11:59:08.623Z,19.45
2019-05-17T12:00:14.552Z,22.82
2019-05-17T12:01:18.621Z,23.95
2019-05-17T12:02:22.375Z,20.75
2019-05-17T12:03:26.321Z,18.50
2019-05-17T12:04:30.079Z,19.50
2019-05-17T12:05:34.092Z,19.30
2019-05-17T12:06:37.895Z,18.55
2019-05-17T12:07:41.835Z,20.20
2019-05-17T12:08:45.596Z,19.90
2019-05-17T12:09:49.531Z,20.15
2019-05-17T12:10:53.407Z,20.43
2019-05-17T12:11:57.689Z,22.20
2019-05-17T12:13:01.457Z,18.75
2019-05-17T12:14:05.402Z,18.35
2019-05-17T12:15:09.303Z,18.00
2019-05-17T12:16:13.253Z,20.40
2019-05-17T12:17:17.057Z,17.12
2019-05-17T12:18:21.009Z,18.80
2019-05-17T12:19:24.758Z,25.77
2019-05-17T12:20:28.839Z,25.92
2019-05-17T12:21:32.637Z,20.27
2019-05-17T12:22:36.615Z,19.70
2019-05-17T12:23:40.377Z,19.45
2019-05-17T12:24:44.316Z,18.50
2019-05-17T12:25:48.150Z,20.15
2019-05-17T12:26:52.091Z,25.30
2019-05-17T12:27:55.884Z,18.55
2019-05-17T12:28:59.875Z,17.90
2019-05-17T12:30:08.116Z,30.85
2019-05-17T12:31:12.041Z,23.20
2019-05-17T12:32:17.101Z,23.40
2019-05-17T12:33:21.251Z,19.17
2019-05-17T12:34:25.052Z,21.97
2019-05-17T12:35:28.998Z,21.12
2019-05-17T12:36:32.776Z,21.70
2019-05-17T12:37:36.715Z,20.02
2019-05-17T12:38:40.460Z,18.52
2019-05-17T12:39:44.445Z,19.55
2019-05-17T12:40:48.210Z,17.57
2019-05-17T12:41:52.201Z,24.02
2019-05-17T12:42:55.925Z,20.95
2019-05-17T12:43:59.867Z,17.10
2019-05-17T12:45:05.678Z,17.40
2019-05-17T12:46:09.630Z,17.10
2019-05-17T12:47:13.638Z,19.48
2019-05-17T12:48:17.589Z,16.57
2019-05-17T12:49:21.343Z,17.55
2019-05-17T12:50:25.331Z,18.60
2019-05-17T12:51:32.773Z,19.10
2019-05-17T12:52:34.716Z,15.10
2019-05-17T12:53:38.520Z,19.50
2019-05-17T12:54:42.463Z,15.85
2019-05-17T12:55:46.220Z,17.37
2019-05-17T12:56:50.159Z,18.77
2019-05-17T12:57:53.922Z,17.40
2019-05-17T12:58:57.917Z,16.37
2019-05-17T13:00:01.673Z,19.23
2019-05-17T13:01:05.629Z,16.17
2019-05-17T13:02:12.290Z,14.95
2019-05-17T13:03:14.979Z,17.12
2019-05-17T13:04:18.768Z,17.17
2019-05-17T13:05:22.706Z,17.45
2019-05-17T13:06:26.460Z,17.07
2019-05-17T13:07:30.399Z,15.60
2019-05-17T13:08:34.150Z,16.80
2019-05-17T13:09:38.132Z,19.27
2019-05-17T13:10:41.894Z,16.95
2019-05-17T13:11:45.827Z,16.62
2019-05-17T13:12:49.664Z,17.95
2019-05-17T13:13:53.733Z,16.62
2019-05-17T13:14:57.556Z,12.55
2019-05-17T13:16:16.820Z,13.65
2019-05-17T13:17:06.916Z,13.25
2019-05-17T13:18:10.852Z,14.73
2019-05-17T13:19:14.603Z,13.03
2019-05-17T13:20:18.820Z,11.43
2019-05-17T13:21:22.580Z,12.95
2019-05-17T13:22:26.515Z,11.70
2019-05-17T13:23:30.313Z,12.50
2019-05-17T13:24:34.267Z,10.90
2019-05-17T13:25:38.016Z,9.13
2019-05-17T13:26:41.965Z,11.35
2019-05-17T13:27:45.725Z,12.70
2019-05-17T13:28:49.731Z,12.13
2019-05-17T13:29:53.495Z,10.95
2019-05-17T13:30:57.568Z,10.40
2019-05-17T13:32:01.319Z,10.95
2019-05-17T13:33:05.439Z,10.85
2019-05-17T13:34:09.228Z,15.05
2019-05-17T13:35:13.921Z,10.78
2019-05-17T13:36:17.672Z,12.07
2019-05-17T13:37:21.629Z,18.92
2019-05-17T13:38:25.461Z,12.35
2019-05-17T13:39:30.435Z,13.38
2019-05-17T13:40:39.526Z,12.88
2019-05-17T13:41:39.890Z,12.07
2019-05-17T13:42:43.633Z,11.35
2019-05-17T13:43:47.597Z,12.65
2019-05-17T13:44:51.381Z,10.38
2019-05-17T13:45:55.315Z,11.05
2019-05-17T13:46:59.111Z,12.37
2019-05-17T13:48:03.093Z,12.95
2019-05-17T13:49:06.829Z,13.90